Time;durP1;ratioP1;P1;durP2;ratioP2;P2;SDS_P1;SDS_P2;PMS_P1;PMS_P2;Temp;Humidity;BMP_temperature;BMP_pressure;BME280_temperature;BME280_humidity;BME280_pressure;Samples;Min_cycle;Max_cycle;Signal;HPM_P1;HPM_P2
2021/08/18 00:00:07;;;;;;;5.57;2.38;;;;;;;;;;5030802;28;20167;-72
2021/08/18 00:02:34;;;;;;;10.90;2.88;;;;;;;;;;5027611;28;20048;-71
2021/08/18 00:05:01;;;;;;;7.18;2.22;;;;;;;;;;5011363;28;20056;-71
2021/08/18 00:07:29;;;;;;;5.13;1.80;;;;;;;;;;5004615;28;20067;-72
2021/08/18 00:09:56;;;;;;;3.70;1.27;;;;;;;;;;5022674;28;20029;-71
2021/08/18 00:12:24;;;;;;;3.63;1.30;;;;;;;;;;5029626;28;20025;-71
2021/08/18 00:14:51;;;;;;;5.40;1.20;;;;;;;;;;5030332;28;20026;-70
2021/08/18 00:17:18;;;;;;;6.25;1.73;;;;;;;;;;5030623;28;20409;-70
2021/08/18 00:19:45;;;;;;;5.88;2.22;;;;;;;;;;5013466;28;20136;-71
2021/08/18 00:22:13;;;;;;;7.22;1.63;;;;;;;;;;5029149;28;20520;-71
2021/08/18 00:24:40;;;;;;;5.70;1.88;;;;;;;;;;5030529;28;20088;-70
2021/08/18 00:27:07;;;;;;;8.50;1.88;;;;;;;;;;5029041;28;20034;-71
2021/08/18 00:29:34;;;;;;;7.25;2.25;;;;;;;;;;5032190;28;20053;-70
2021/08/18 00:32:01;;;;;;;6.75;1.77;;;;;;;;;;5033659;28;20049;-71
2021/08/18 00:34:28;;;;;;;4.78;1.15;;;;;;;;;;5013554;28;20117;-70
2021/08/18 00:36:55;;;;;;;8.30;1.73;;;;;;;;;;5034317;28;20125;-71
2021/08/18 00:39:22;;;;;;;3.92;1.30;;;;;;;;;;5033898;28;20040;-71
2021/08/18 00:41:50;;;;;;;5.50;1.60;;;;;;;;;;5034327;28;20037;-70
2021/08/18 00:44:17;;;;;;;5.97;1.38;;;;;;;;;;5033564;28;20564;-71
2021/08/18 00:46:51;;;;;;;7.70;1.52;;;;;;;;;;5035552;28;20042;-70
2021/08/18 00:49:19;;;;;;;8.02;1.52;;;;;;;;;;5034634;28;20065;-71
2021/08/18 00:51:46;;;;;;;5.18;1.42;;;;;;;;;;5017377;28;20120;-71
2021/08/18 00:54:14;;;;;;;14.15;1.42;;;;;;;;;;5032279;28;20029;-72
2021/08/18 00:56:41;;;;;;;7.57;1.58;;;;;;;;;;5016429;28;20033;-71
2021/08/18 00:59:09;;;;;;;6.85;1.20;;;;;;;;;;5025693;28;20383;-70
2021/08/18 01:01:36;;;;;;;6.72;1.58;;;;;;;;;;5032446;28;20057;-70
2021/08/18 01:04:04;;;;;;;5.32;1.48;;;;;;;;;;5025097;28;20037;-71
2021/08/18 01:06:32;;;;;;;7.32;1.38;;;;;;;;;;5032024;28;20034;-71
2021/08/18 01:09:00;;;;;;;6.93;1.63;;;;;;;;;;5031081;28;20036;-70
2021/08/18 01:11:27;;;;;;;7.55;1.20;;;;;;;;;;5028189;28;20033;-70
2021/08/18 01:13:54;;;;;;;4.72;1.63;;;;;;;;;;5024437;28;20124;-69
2021/08/18 01:16:21;;;;;;;8.35;1.40;;;;;;;;;;5035071;28;20038;-70
2021/08/18 01:18:48;;;;;;;8.35;1.25;;;;;;;;;;5025024;28;20041;-71
2021/08/18 01:21:16;;;;;;;7.00;1.50;;;;;;;;;;5034289;28;20509;-70
2021/08/18 01:23:43;;;;;;;7.10;1.27;;;;;;;;;;5025178;28;20079;-70
2021/08/18 01:26:10;;;;;;;7.30;1.48;;;;;;;;;;5034362;28;20046;-68
2021/08/18 01:28:37;;;;;;;11.95;1.63;;;;;;;;;;5031473;28;20161;-69
2021/08/18 01:31:04;;;;;;;7.00;1.35;;;;;;;;;;5026411;28;20041;-70
2021/08/18 01:33:31;;;;;;;5.13;1.00;;;;;;;;;;5027821;28;20045;-70
2021/08/18 01:35:59;;;;;;;5.68;1.17;;;;;;;;;;5034032;28;20035;-70
2021/08/18 01:38:26;;;;;;;5.30;1.25;;;;;;;;;;5031900;28;20398;-70
2021/08/18 01:40:53;;;;;;;4.88;1.08;;;;;;;;;;5030394;28;20038;-69
2021/08/18 01:43:21;;;;;;;6.38;1.02;;;;;;;;;;5028875;28;20111;-69
2021/08/18 01:45:49;;;;;;;7.18;1.13;;;;;;;;;;5028762;28;20037;-69
2021/08/18 01:48:17;;;;;;;4.05;1.10;;;;;;;;;;5031566;28;20197;-69
2021/08/18 01:50:48;;;;;;;6.97;1.30;;;;;;;;;;5031904;28;20457;-69
2021/08/18 01:53:16;;;;;;;6.00;1.52;;;;;;;;;;5031279;28;20040;-69
2021/08/18 01:55:43;;;;;;;9.23;2.03;;;;;;;;;;5010859;28;20071;-69
2021/08/18 01:58:11;;;;;;;5.93;0.82;;;;;;;;;;5030386;28;20506;-69
2021/08/18 02:00:38;;;;;;;7.35;1.30;;;;;;;;;;5031720;28;20030;-71
2021/08/18 02:03:05;;;;;;;4.82;1.13;;;;;;;;;;5010804;28;20095;-69
2021/08/18 02:05:32;;;;;;;4.15;1.30;;;;;;;;;;5027440;28;20038;-70
2021/08/18 02:07:59;;;;;;;8.40;1.35;;;;;;;;;;5029176;28;20030;-69
2021/08/18 02:10:28;;;;;;;7.43;1.60;;;;;;;;;;5032730;28;20033;-69
2021/08/18 02:12:55;;;;;;;6.60;1.00;;;;;;;;;;5021423;28;20026;-70
2021/08/18 02:15:24;;;;;;;4.90;0.82;;;;;;;;;;5032915;28;20045;-69
2021/08/18 02:17:51;;;;;;;5.20;1.00;;;;;;;;;;5027465;28;20072;-68
2021/08/18 02:20:20;;;;;;;5.07;0.70;;;;;;;;;;5033910;28;20039;-69
2021/08/18 02:22:47;;;;;;;7.15;1.10;;;;;;;;;;5036532;28;20038;-68
2021/08/18 02:25:14;;;;;;;5.88;0.80;;;;;;;;;;5035296;28;20041;-68
2021/08/18 02:27:41;;;;;;;5.57;0.85;;;;;;;;;;5029630;28;20033;-70
2021/08/18 02:30:09;;;;;;;3.40;0.85;;;;;;;;;;5032853;28;20163;-68
2021/08/18 02:32:36;;;;;;;4.70;1.20;;;;;;;;;;5036086;28;20053;-68
2021/08/18 02:35:04;;;;;;;4.97;0.90;;;;;;;;;;5043485;28;20033;-69
2021/08/18 02:37:31;;;;;;;5.43;1.15;;;;;;;;;;5032018;28;20371;-69
2021/08/18 02:39:58;;;;;;;5.95;1.25;;;;;;;;;;5030592;28;20037;-69
2021/08/18 02:42:25;;;;;;;6.72;0.65;;;;;;;;;;5021627;28;20038;-69
2021/08/18 02:44:52;;;;;;;5.05;0.85;;;;;;;;;;5030994;28;20029;-69
2021/08/18 02:47:19;;;;;;;3.80;1.00;;;;;;;;;;5030737;28;20391;-70
2021/08/18 02:49:46;;;;;;;4.25;1.10;;;;;;;;;;5032787;28;20038;-69
2021/08/18 02:52:14;;;;;;;3.83;1.08;;;;;;;;;;5030746;28;20029;-69
2021/08/18 02:54:41;;;;;;;7.82;1.40;;;;;;;;;;5032657;28;20041;-69
2021/08/18 02:57:08;;;;;;;4.35;1.33;;;;;;;;;;5028176;28;20065;-69
2021/08/18 02:59:35;;;;;;;4.55;0.90;;;;;;;;;;5031932;28;20030;-70
2021/08/18 03:02:03;;;;;;;4.45;0.80;;;;;;;;;;5013169;28;20084;-70
2021/08/18 03:04:30;;;;;;;5.68;1.73;;;;;;;;;;5032110;28;21146;-70
2021/08/18 03:06:57;;;;;;;5.30;0.80;;;;;;;;;;5026947;28;20096;-70
2021/08/18 03:09:24;;;;;;;5.43;0.90;;;;;;;;;;5031336;28;20442;-70
2021/08/18 03:11:52;;;;;;;9.38;1.02;;;;;;;;;;5031699;28;20034;-70
2021/08/18 03:14:20;;;;;;;6.85;1.15;;;;;;;;;;5028775;28;20057;-70
2021/08/18 03:16:48;;;;;;;5.60;0.77;;;;;;;;;;5011058;28;20045;-72
2021/08/18 03:19:15;;;;;;;7.20;1.60;;;;;;;;;;5028394;28;20550;-71
2021/08/18 03:21:42;;;;;;;5.88;0.73;;;;;;;;;;5028767;28;20022;-71
2021/08/18 03:24:11;;;;;;;4.20;1.08;;;;;;;;;;5031262;28;20033;-71
2021/08/18 03:26:39;;;;;;;5.18;1.23;;;;;;;;;;5039044;28;20039;-72
2021/08/18 03:29:06;;;;;;;5.78;0.80;;;;;;;;;;5031091;28;20042;-73
2021/08/18 03:31:33;;;;;;;7.22;1.25;;;;;;;;;;5040330;28;20132;-71
2021/08/18 03:34:00;;;;;;;13.70;0.82;;;;;;;;;;5027782;28;20545;-71
2021/08/18 03:36:28;;;;;;;6.40;1.30;;;;;;;;;;5028224;28;20036;-71
2021/08/18 03:38:55;;;;;;;3.65;1.05;;;;;;;;;;5027256;28;20021;-72
2021/08/18 03:41:22;;;;;;;4.55;1.38;;;;;;;;;;5030201;28;20037;-72
2021/08/18 03:43:50;;;;;;;4.85;1.27;;;;;;;;;;5029549;28;20046;-70
2021/08/18 03:46:17;;;;;;;5.43;1.02;;;;;;;;;;5031784;28;20052;-70
2021/08/18 03:48:44;;;;;;;5.00;1.05;;;;;;;;;;5013497;28;20052;-70
2021/08/18 03:51:11;;;;;;;6.43;1.30;;;;;;;;;;5010260;28;20025;-70
2021/08/18 03:53:38;;;;;;;5.50;1.20;;;;;;;;;;5025928;28;20034;-70
2021/08/18 03:56:05;;;;;;;3.90;1.05;;;;;;;;;;5038816;28;20039;-70
2021/08/18 03:58:33;;;;;;;5.47;1.17;;;;;;;;;;5034706;28;20167;-71
2021/08/18 04:01:00;;;;;;;6.43;1.20;;;;;;;;;;5049424;28;20033;-71
2021/08/18 04:03:27;;;;;;;8.00;1.05;;;;;;;;;;5034774;28;20037;-71
2021/08/18 04:05:54;;;;;;;6.88;0.90;;;;;;;;;;5011779;28;20167;-70
2021/08/18 04:08:21;;;;;;;8.77;1.40;;;;;;;;;;5032564;28;20064;-71
2021/08/18 04:10:48;;;;;;;6.90;1.45;;;;;;;;;;5038633;28;20061;-70
2021/08/18 04:13:15;;;;;;;7.35;0.95;;;;;;;;;;5029017;28;20120;-70
2021/08/18 04:15:43;;;;;;;9.63;1.40;;;;;;;;;;5007227;28;20121;-71
2021/08/18 04:18:13;;;;;;;8.80;1.58;;;;;;;;;;5037787;28;20115;-70
2021/08/18 04:20:40;;;;;;;7.57;1.15;;;;;;;;;;5026070;28;20036;-70
2021/08/18 04:23:08;;;;;;;4.25;1.10;;;;;;;;;;5026753;28;20037;-70
2021/08/18 04:25:37;;;;;;;4.88;1.08;;;;;;;;;;5040137;28;20044;-70
2021/08/18 04:28:04;;;;;;;10.18;0.93;;;;;;;;;;5032361;28;20437;-70
2021/08/18 04:30:32;;;;;;;5.57;1.45;;;;;;;;;;5027344;28;20768;-70
2021/08/18 04:32:59;;;;;;;7.35;1.58;;;;;;;;;;5030937;28;20045;-71
2021/08/18 04:35:26;;;;;;;6.65;1.17;;;;;;;;;;5036171;28;20037;-69
2021/08/18 04:37:53;;;;;;;5.38;1.42;;;;;;;;;;5039286;28;20120;-70
2021/08/18 04:40:21;;;;;;;11.77;1.10;;;;;;;;;;5045815;28;20442;-69
2021/08/18 04:42:49;;;;;;;3.25;1.00;;;;;;;;;;5038007;28;20863;-69
2021/08/18 04:45:17;;;;;;;7.15;1.17;;;;;;;;;;5011902;28;20107;-70
2021/08/18 04:47:44;;;;;;;8.68;1.15;;;;;;;;;;5027374;28;20041;-70
2021/08/18 04:50:12;;;;;;;3.83;1.02;;;;;;;;;;5027582;28;20129;-69
2021/08/18 04:52:39;;;;;;;4.93;0.98;;;;;;;;;;5042327;28;20061;-70
2021/08/18 04:55:07;;;;;;;7.53;1.38;;;;;;;;;;5040930;28;20033;-69
2021/08/18 04:57:34;;;;;;;8.25;1.15;;;;;;;;;;5025005;28;20550;-69
2021/08/18 05:00:01;;;;;;;4.13;0.85;;;;;;;;;;5037143;28;20037;-69
2021/08/18 05:02:28;;;;;;;9.70;1.27;;;;;;;;;;5011069;28;20148;-69
2021/08/18 05:04:55;;;;;;;3.90;0.90;;;;;;;;;;5030599;28;20120;-69
2021/08/18 05:07:22;;;;;;;4.03;1.23;;;;;;;;;;5036626;28;20076;-70
2021/08/18 05:09:49;;;;;;;7.13;1.08;;;;;;;;;;5034677;28;20033;-69
2021/08/18 05:12:17;;;;;;;5.82;1.13;;;;;;;;;;5024116;28;20030;-69
2021/08/18 05:14:44;;;;;;;4.03;0.80;;;;;;;;;;5029174;28;20030;-70
2021/08/18 05:17:11;;;;;;;6.70;1.13;;;;;;;;;;5013517;28;20045;-70
2021/08/18 05:19:38;;;;;;;4.15;0.75;;;;;;;;;;5034495;28;20557;-70
2021/08/18 05:22:05;;;;;;;5.60;0.77;;;;;;;;;;5014778;28;20049;-70
2021/08/18 05:24:32;;;;;;;9.40;0.98;;;;;;;;;;5032489;28;20034;-70
2021/08/18 05:26:59;;;;;;;6.22;1.23;;;;;;;;;;5030067;28;20049;-70
2021/08/18 05:29:27;;;;;;;6.13;0.98;;;;;;;;;;5033876;28;20033;-71
2021/08/18 05:31:54;;;;;;;4.90;1.20;;;;;;;;;;5046486;28;20045;-71
2021/08/18 05:34:21;;;;;;;6.18;1.10;;;;;;;;;;5016203;28;20056;-69
2021/08/18 05:36:48;;;;;;;6.75;1.00;;;;;;;;;;5032740;28;20088;-70
2021/08/18 05:39:15;;;;;;;4.72;0.70;;;;;;;;;;5022035;28;20034;-70
2021/08/18 05:41:42;;;;;;;6.10;0.98;;;;;;;;;;5038665;28;20108;-70
2021/08/18 05:44:09;;;;;;;5.32;0.73;;;;;;;;;;5032194;28;20554;-70
2021/08/18 05:46:37;;;;;;;3.75;0.80;;;;;;;;;;5034071;28;20087;-71
2021/08/18 05:49:04;;;;;;;7.43;1.23;;;;;;;;;;5031376;28;20109;-70
2021/08/18 05:51:31;;;;;;;8.95;1.10;;;;;;;;;;5032234;28;20033;-70
2021/08/18 05:53:58;;;;;;;5.25;0.88;;;;;;;;;;5030471;28;20028;-70
2021/08/18 05:56:25;;;;;;;4.50;1.10;;;;;;;;;;5029325;28;20393;-70
2021/08/18 05:58:52;;;;;;;5.63;0.70;;;;;;;;;;5032457;28;20030;-70
2021/08/18 06:01:19;;;;;;;5.75;1.30;;;;;;;;;;5023857;28;20088;-70
2021/08/18 06:03:48;;;;;;;3.55;0.55;;;;;;;;;;5017250;28;20766;-69
2021/08/18 06:06:15;;;;;;;4.78;0.80;;;;;;;;;;5028842;28;20037;-70
2021/08/18 06:08:42;;;;;;;3.45;0.60;;;;;;;;;;5026689;28;20116;-70
2021/08/18 06:11:09;;;;;;;4.88;0.85;;;;;;;;;;5022691;28;20060;-70
2021/08/18 06:13:36;;;;;;;3.15;0.50;;;;;;;;;;5021433;28;20144;-70
2021/08/18 06:16:03;;;;;;;5.25;0.90;;;;;;;;;;5022260;28;20164;-70
2021/08/18 06:18:31;;;;;;;7.28;1.02;;;;;;;;;;5028224;28;20033;-70
2021/08/18 06:20:58;;;;;;;3.30;0.60;;;;;;;;;;5029498;28;20056;-70
2021/08/18 06:23:27;;;;;;;3.95;1.02;;;;;;;;;;5030462;28;20059;-69
2021/08/18 06:25:55;;;;;;;8.23;0.80;;;;;;;;;;5028960;28;20512;-70
2021/08/18 06:28:22;;;;;;;8.00;0.80;;;;;;;;;;5028974;28;20505;-70
2021/08/18 06:30:49;;;;;;;7.18;1.02;;;;;;;;;;5031338;28;20041;-70
2021/08/18 06:33:16;;;;;;;5.50;0.80;;;;;;;;;;5030671;28;20072;-70
2021/08/18 06:35:44;;;;;;;5.95;0.93;;;;;;;;;;5012823;28;20034;-70
2021/08/18 06:38:11;;;;;;;5.03;0.80;;;;;;;;;;5031043;28;20444;-70
2021/08/18 06:40:38;;;;;;;4.70;0.60;;;;;;;;;;5031826;28;20670;-69
2021/08/18 06:43:05;;;;;;;5.10;0.73;;;;;;;;;;5012691;28;20048;-69
2021/08/18 06:45:32;;;;;;;3.13;0.55;;;;;;;;;;5023630;28;20030;-69
2021/08/18 06:48:00;;;;;;;4.32;0.80;;;;;;;;;;5031486;28;20041;-69
2021/08/18 06:50:27;;;;;;;6.43;0.85;;;;;;;;;;5032557;28;20036;-70
2021/08/18 06:52:54;;;;;;;8.07;0.90;;;;;;;;;;5012988;28;20033;-71
2021/08/18 06:55:21;;;;;;;3.80;0.50;;;;;;;;;;5029316;28;20363;-70
2021/08/18 06:57:49;;;;;;;4.32;0.73;;;;;;;;;;5028952;28;20061;-70
2021/08/18 07:00:16;;;;;;;3.25;0.70;;;;;;;;;;5027868;28;20045;-70
2021/08/18 07:02:49;;;;;;;3.47;0.63;;;;;;;;;;5029127;28;20045;-70
2021/08/18 07:05:16;;;;;;;5.85;1.20;;;;;;;;;;5029503;28;20394;-71
2021/08/18 07:07:44;;;;;;;3.33;0.60;;;;;;;;;;5024998;28;20049;-69
2021/08/18 07:10:11;;;;;;;2.83;0.55;;;;;;;;;;5029005;28;20037;-70
2021/08/18 07:12:38;;;;;;;6.28;0.77;;;;;;;;;;5025406;28;20107;-69
2021/08/18 07:15:06;;;;;;;5.10;0.80;;;;;;;;;;5009422;28;20041;-69
2021/08/18 07:17:34;;;;;;;4.30;0.80;;;;;;;;;;5028890;28;20033;-70
2021/08/18 07:20:01;;;;;;;3.97;1.08;;;;;;;;;;5028051;28;20120;-69
2021/08/18 07:22:28;;;;;;;3.22;0.90;;;;;;;;;;5027224;28;20029;-70
2021/08/18 07:24:55;;;;;;;5.30;1.40;;;;;;;;;;5010152;28;20498;-70
2021/08/18 07:27:22;;;;;;;2.05;0.93;;;;;;;;;;5008448;28;20084;-69
2021/08/18 07:29:50;;;;;;;2.97;1.13;;;;;;;;;;5011517;28;20048;-70
2021/08/18 07:32:17;;;;;;;4.45;2.25;;;;;;;;;;5029514;28;20072;-70
2021/08/18 07:34:44;;;;;;;4.60;1.88;;;;;;;;;;5030995;28;20026;-70
2021/08/18 07:37:11;;;;;;;7.75;1.33;;;;;;;;;;5029033;28;20893;-70
2021/08/18 07:39:38;;;;;;;3.75;1.15;;;;;;;;;;5031017;28;20029;-70
2021/08/18 07:42:05;;;;;;;2.67;1.10;;;;;;;;;;5022841;28;20358;-70
2021/08/18 07:44:33;;;;;;;5.03;1.40;;;;;;;;;;5013062;28;20038;-70
2021/08/18 07:47:01;;;;;;;4.20;1.00;;;;;;;;;;5028258;28;20041;-70
2021/08/18 07:49:28;;;;;;;4.90;0.93;;;;;;;;;;5030062;28;20057;-69
2021/08/18 07:51:55;;;;;;;5.65;1.23;;;;;;;;;;5011768;28;20512;-69
2021/08/18 07:54:22;;;;;;;5.28;1.75;;;;;;;;;;5033440;28;20069;-70
2021/08/18 07:56:49;;;;;;;5.85;2.58;;;;;;;;;;5030189;28;20662;-69
2021/08/18 07:59:16;;;;;;;6.03;2.45;;;;;;;;;;5031554;28;20087;-70
2021/08/18 08:01:43;;;;;;;5.03;1.77;;;;;;;;;;5032479;28;20029;-70
2021/08/18 08:04:10;;;;;;;7.68;1.92;;;;;;;;;;5039204;28;20057;-71
2021/08/18 08:06:37;;;;;;;6.43;1.45;;;;;;;;;;5005451;28;20076;-70
2021/08/18 08:09:05;;;;;;;8.52;4.13;;;;;;;;;;5026017;28;20044;-70
2021/08/18 08:11:33;;;;;;;12.40;5.75;;;;;;;;;;5031035;28;20064;-69
2021/08/18 08:14:00;;;;;;;10.45;3.33;;;;;;;;;;5013166;28;20036;-70
2021/08/18 08:16:28;;;;;;;6.28;2.97;;;;;;;;;;5031307;28;20040;-68
2021/08/18 08:18:55;;;;;;;6.68;2.55;;;;;;;;;;5030652;28;20037;-68
2021/08/18 08:21:22;;;;;;;3.35;1.60;;;;;;;;;;5012307;28;20045;-68
2021/08/18 08:23:49;;;;;;;5.20;1.63;;;;;;;;;;5024290;28;20037;-69
2021/08/18 08:26:16;;;;;;;6.93;1.40;;;;;;;;;;5028561;28;20490;-69
2021/08/18 08:28:43;;;;;;;5.38;1.15;;;;;;;;;;5030602;28;20037;-69
2021/08/18 08:31:10;;;;;;;6.00;1.35;;;;;;;;;;5031340;28;20436;-68
2021/08/18 08:33:37;;;;;;;5.07;1.20;;;;;;;;;;5030287;28;20041;-69
2021/08/18 08:36:05;;;;;;;4.75;1.52;;;;;;;;;;5030989;28;20042;-70
2021/08/18 08:38:32;;;;;;;6.78;1.70;;;;;;;;;;5012986;28;20073;-69
2021/08/18 08:40:59;;;;;;;6.40;1.95;;;;;;;;;;5025296;28;20108;-69
2021/08/18 08:43:26;;;;;;;4.40;1.63;;;;;;;;;;5025487;28;20030;-70
2021/08/18 08:45:53;;;;;;;9.20;2.67;;;;;;;;;;5032235;28;20060;-69
2021/08/18 08:48:21;;;;;;;5.00;1.58;;;;;;;;;;5040310;28;20045;-69
2021/08/18 08:50:49;;;;;;;6.90;2.28;;;;;;;;;;5014506;28;20041;-69
2021/08/18 08:53:17;;;;;;;4.60;1.55;;;;;;;;;;5015612;28;20033;-69
2021/08/18 08:55:46;;;;;;;7.45;2.00;;;;;;;;;;5033841;28;20037;-68
2021/08/18 08:58:13;;;;;;;10.00;1.77;;;;;;;;;;5037302;28;20508;-69
2021/08/18 09:00:40;;;;;;;6.75;2.03;;;;;;;;;;5034906;28;20128;-69
2021/08/18 09:03:15;;;;;;;7.18;2.30;;;;;;;;;;5029937;28;20037;-68
2021/08/18 09:05:43;;;;;;;10.45;2.45;;;;;;;;;;5034729;28;20033;-69
2021/08/18 09:08:23;;;;;;;8.73;2.35;;;;;;;;;;5034876;28;20033;-69
2021/08/18 09:11:10;;;;;;;5.35;2.03;;;;;;;;;;5034595;28;20030;-70
2021/08/18 09:13:40;;;;;;;5.70;1.90;;;;;;;;;;5015821;28;20069;-70
2021/08/18 09:16:07;;;;;;;8.63;2.35;;;;;;;;;;5034222;28;20521;-70
2021/08/18 09:18:44;;;;;;;5.63;1.98;;;;;;;;;;5014050;28;20041;-70
2021/08/18 09:21:26;;;;;;;6.05;1.98;;;;;;;;;;5034243;28;20091;-70
2021/08/18 09:24:13;;;;;;;8.77;3.13;;;;;;;;;;5016029;28;20071;-70
2021/08/18 09:26:41;;;;;;;7.13;2.35;;;;;;;;;;5033928;28;20041;-70
2021/08/18 09:29:08;;;;;;;7.63;2.95;;;;;;;;;;5035285;28;20099;-70
2021/08/18 09:31:35;;;;;;;13.02;3.17;;;;;;;;;;5034184;28;20069;-70
2021/08/18 09:34:02;;;;;;;12.60;2.92;;;;;;;;;;5035105;28;20482;-71
2021/08/18 09:36:32;;;;;;;12.88;3.20;;;;;;;;;;5051079;28;20047;-71
2021/08/18 09:39:19;;;;;;;5.78;2.20;;;;;;;;;;5024134;28;20034;-70
2021/08/18 09:41:47;;;;;;;11.77;3.20;;;;;;;;;;5001670;28;20046;-70
2021/08/18 09:44:14;;;;;;;5.22;1.77;;;;;;;;;;5016252;28;20104;-70
2021/08/18 09:46:41;;;;;;;8.57;2.30;;;;;;;;;;5023147;28;20065;-71
2021/08/18 09:49:09;;;;;;;4.22;1.60;;;;;;;;;;5039149;28;20044;-71
2021/08/18 09:51:36;;;;;;;10.30;2.25;;;;;;;;;;5034940;28;20068;-70
2021/08/18 09:54:13;;;;;;;9.52;2.30;;;;;;;;;;5017586;28;20367;-70
2021/08/18 09:56:41;;;;;;;9.05;3.00;;;;;;;;;;5023871;28;20550;-70
2021/08/18 09:59:09;;;;;;;6.53;1.90;;;;;;;;;;5034015;28;20447;-70
2021/08/18 10:01:37;;;;;;;5.80;1.50;;;;;;;;;;5034414;28;20036;-70
2021/08/18 10:04:04;;;;;;;6.03;1.65;;;;;;;;;;5043940;28;20025;-71
2021/08/18 10:06:32;;;;;;;4.30;1.60;;;;;;;;;;5033834;28;20053;-71
2021/08/18 10:08:59;;;;;;;7.45;1.45;;;;;;;;;;5034289;28;20091;-71
2021/08/18 10:11:27;;;;;;;5.45;1.33;;;;;;;;;;5033607;28;20053;-71
2021/08/18 10:13:55;;;;;;;6.05;1.83;;;;;;;;;;5028582;28;20486;-71
2021/08/18 10:16:22;;;;;;;12.05;1.50;;;;;;;;;;5033793;28;20075;-71
2021/08/18 10:18:50;;;;;;;6.78;1.70;;;;;;;;;;5015352;28;20045;-71
2021/08/18 10:21:21;;;;;;;11.55;2.03;;;;;;;;;;5038824;28;20044;-72
2021/08/18 10:23:51;;;;;;;5.53;1.70;;;;;;;;;;5015336;28;20029;-71
2021/08/18 10:26:36;;;;;;;10.80;2.00;;;;;;;;;;5033426;28;20044;-72
2021/08/18 10:29:06;;;;;;;14.32;3.03;;;;;;;;;;5016153;28;20045;-71
2021/08/18 10:31:46;;;;;;;10.20;2.28;;;;;;;;;;5033257;28;20501;-71
2021/08/18 10:34:25;;;;;;;7.55;2.03;;;;;;;;;;5034150;28;20045;-71
2021/08/18 10:37:01;;;;;;;8.00;3.05;;;;;;;;;;5040591;28;20036;-71
2021/08/18 10:39:29;;;;;;;10.52;3.60;;;;;;;;;;5015870;28;20132;-71
2021/08/18 10:41:59;;;;;;;10.73;2.97;;;;;;;;;;5015763;28;20033;-71
2021/08/18 10:44:43;;;;;;;10.18;2.20;;;;;;;;;;5033447;28;20038;-70
2021/08/18 10:47:13;;;;;;;10.20;2.40;;;;;;;;;;5033114;28;20398;-70
2021/08/18 10:49:40;;;;;;;10.82;2.67;;;;;;;;;;5031909;28;20445;-71
2021/08/18 10:52:07;;;;;;;7.47;2.70;;;;;;;;;;5036866;28;20037;-70
2021/08/18 10:54:34;;;;;;;9.30;2.08;;;;;;;;;;5028253;28;20041;-70
2021/08/18 10:57:04;;;;;;;6.80;2.20;;;;;;;;;;5031978;28;20037;-70
2021/08/18 10:59:37;;;;;;;14.43;2.15;;;;;;;;;;5032419;28;20025;-70
2021/08/18 11:02:10;;;;;;;8.52;2.15;;;;;;;;;;5033548;28;20034;-71
2021/08/18 11:04:44;;;;;;;9.47;2.10;;;;;;;;;;5030938;28;20037;-69
2021/08/18 11:07:12;;;;;;;7.07;2.53;;;;;;;;;;5028706;28;20037;-70
2021/08/18 11:09:48;;;;;;;8.38;2.72;;;;;;;;;;5027611;28;20396;-70
2021/08/18 11:12:33;;;;;;;8.82;2.55;;;;;;;;;;5019214;28;20041;-70
2021/08/18 11:15:00;;;;;;;11.30;2.20;;;;;;;;;;5029066;28;20041;-70
2021/08/18 11:17:28;;;;;;;6.75;2.28;;;;;;;;;;5021718;28;20045;-70
2021/08/18 11:19:56;;;;;;;8.05;2.00;;;;;;;;;;5028980;28;20025;-70
2021/08/18 11:22:24;;;;;;;9.50;2.22;;;;;;;;;;5024924;28;20057;-69
2021/08/18 11:24:52;;;;;;;8.65;2.17;;;;;;;;;;5011135;28;20029;-69
2021/08/18 11:27:19;;;;;;;7.47;1.77;;;;;;;;;;5029146;28;20072;-70
2021/08/18 11:29:46;;;;;;;5.78;1.40;;;;;;;;;;5014213;28;20041;-69
2021/08/18 11:32:24;;;;;;;7.55;1.67;;;;;;;;;;5025788;28;20485;-69
2021/08/18 11:34:51;;;;;;;7.93;1.92;;;;;;;;;;5022912;28;20026;-69
2021/08/18 11:37:19;;;;;;;10.45;1.80;;;;;;;;;;5031356;28;20095;-69
2021/08/18 11:39:48;;;;;;;8.68;2.22;;;;;;;;;;5031548;28;20033;-69
2021/08/18 11:42:16;;;;;;;8.57;2.60;;;;;;;;;;5029779;28;20064;-69
2021/08/18 11:44:44;;;;;;;4.20;1.15;;;;;;;;;;5031158;28;20519;-69
2021/08/18 11:47:13;;;;;;;9.15;1.45;;;;;;;;;;5027022;28;20490;-69
2021/08/18 11:49:40;;;;;;;7.32;2.33;;;;;;;;;;5027601;28;21819;-70
2021/08/18 11:52:08;;;;;;;6.10;1.55;;;;;;;;;;5027106;28;20486;-70
2021/08/18 11:54:35;;;;;;;6.95;1.55;;;;;;;;;;5031623;28;20048;-70
2021/08/18 11:57:09;;;;;;;10.25;1.80;;;;;;;;;;5029636;28;20619;-70
2021/08/18 11:59:37;;;;;;;8.23;1.60;;;;;;;;;;5012328;28;20064;-70
2021/08/18 12:02:04;;;;;;;4.43;1.75;;;;;;;;;;5024051;28;20120;-70
2021/08/18 12:04:31;;;;;;;5.32;1.13;;;;;;;;;;5031708;28;20029;-70
2021/08/18 12:07:11;;;;;;;8.00;1.17;;;;;;;;;;5030740;28;20041;-70
2021/08/18 12:09:38;;;;;;;7.00;1.50;;;;;;;;;;5021513;28;20133;-70
2021/08/18 12:12:24;;;;;;;4.95;1.10;;;;;;;;;;5028718;28;20073;-70
2021/08/18 12:14:53;;;;;;;4.63;1.30;;;;;;;;;;5025988;28;20080;-71
2021/08/18 12:17:21;;;;;;;5.30;1.48;;;;;;;;;;5029484;28;20398;-70
2021/08/18 12:19:48;;;;;;;4.80;1.40;;;;;;;;;;5013551;28;20802;-70
2021/08/18 12:22:18;;;;;;;5.70;1.63;;;;;;;;;;5029991;28;20450;-70
2021/08/18 12:24:47;;;;;;;6.95;2.00;;;;;;;;;;5012700;28;20151;-70
2021/08/18 12:27:14;;;;;;;8.88;1.60;;;;;;;;;;5029577;28;20050;-70
2021/08/18 12:29:44;;;;;;;7.10;1.42;;;;;;;;;;5030721;28;20061;-70
2021/08/18 12:32:12;;;;;;;6.15;1.50;;;;;;;;;;5029896;28;20098;-70
2021/08/18 12:34:40;;;;;;;12.57;2.90;;;;;;;;;;5013344;28;20080;-70
2021/08/18 12:37:07;;;;;;;4.43;1.63;;;;;;;;;;5030435;28;20490;-70
2021/08/18 12:39:36;;;;;;;14.65;2.17;;;;;;;;;;5008736;28;20064;-70
2021/08/18 12:42:05;;;;;;;4.95;1.67;;;;;;;;;;5029152;28;20079;-70
2021/08/18 12:44:33;;;;;;;9.52;1.52;;;;;;;;;;5031064;28;20025;-70
2021/08/18 12:47:08;;;;;;;6.97;1.98;;;;;;;;;;5029257;28;20041;-70
2021/08/18 12:49:36;;;;;;;5.53;2.00;;;;;;;;;;5028261;28;20394;-70
2021/08/18 12:52:04;;;;;;;5.82;2.10;;;;;;;;;;5029240;28;20036;-70
2021/08/18 12:54:32;;;;;;;10.05;2.25;;;;;;;;;;5030334;28;20038;-70
2021/08/18 12:57:03;;;;;;;8.15;1.83;;;;;;;;;;5024901;28;20112;-70
2021/08/18 12:59:40;;;;;;;6.03;2.13;;;;;;;;;;5015869;28;20496;-71
2021/08/18 13:02:08;;;;;;;6.53;2.63;;;;;;;;;;5029244;28;20497;-70
2021/08/18 13:04:36;;;;;;;7.25;2.20;;;;;;;;;;5028778;28;20117;-70
2021/08/18 13:07:03;;;;;;;7.07;2.17;;;;;;;;;;5029325;28;20088;-70
2021/08/18 13:09:30;;;;;;;5.93;1.90;;;;;;;;;;5011876;28;20049;-69
2021/08/18 13:11:59;;;;;;;6.95;1.95;;;;;;;;;;5029457;28;20057;-69
2021/08/18 13:14:27;;;;;;;7.70;1.92;;;;;;;;;;5029516;28;20112;-69
2021/08/18 13:16:54;;;;;;;9.25;1.65;;;;;;;;;;5029193;28;20129;-69
2021/08/18 13:19:21;;;;;;;8.82;1.92;;;;;;;;;;5000903;28;20033;-70
2021/08/18 13:21:48;;;;;;;5.80;2.42;;;;;;;;;;5003990;28;20034;-72
2021/08/18 13:24:16;;;;;;;9.30;2.58;;;;;;;;;;5029920;28;20033;-70
2021/08/18 13:26:44;;;;;;;6.05;1.90;;;;;;;;;;5030807;28;20044;-71
2021/08/18 13:29:11;;;;;;;8.18;1.92;;;;;;;;;;5029653;28;20033;-69
2021/08/18 13:31:38;;;;;;;9.13;2.42;;;;;;;;;;5029752;28;20073;-70
2021/08/18 13:34:06;;;;;;;12.48;2.53;;;;;;;;;;5028281;28;20394;-70
2021/08/18 13:36:33;;;;;;;9.02;2.38;;;;;;;;;;5031596;28;20079;-70
2021/08/18 13:39:01;;;;;;;6.63;2.33;;;;;;;;;;5024970;28;20494;-70
2021/08/18 13:41:29;;;;;;;12.50;2.65;;;;;;;;;;5032128;28;20034;-70
2021/08/18 13:43:58;;;;;;;5.97;2.22;;;;;;;;;;5024279;28;20113;-71
2021/08/18 13:46:26;;;;;;;5.35;2.45;;;;;;;;;;5034130;28;20099;-70
2021/08/18 13:48:54;;;;;;;11.18;2.75;;;;;;;;;;5030982;28;20057;-70
2021/08/18 13:51:21;;;;;;;9.48;2.50;;;;;;;;;;5029311;28;20061;-70
2021/08/18 13:53:48;;;;;;;6.10;2.15;;;;;;;;;;5015366;28;20113;-70
2021/08/18 13:56:15;;;;;;;9.70;2.70;;;;;;;;;;5033779;28;20061;-70
2021/08/18 13:58:45;;;;;;;8.45;3.35;;;;;;;;;;5007087;28;20398;-70
2021/08/18 14:01:13;;;;;;;11.98;3.25;;;;;;;;;;5032284;28;20398;-70
2021/08/18 14:03:40;;;;;;;8.18;3.17;;;;;;;;;;5006699;28;20092;-70
2021/08/18 14:06:07;;;;;;;6.68;3.05;;;;;;;;;;5033263;28;20513;-70
2021/08/18 14:08:38;;;;;;;10.80;2.92;;;;;;;;;;5031777;28;20117;-70
2021/08/18 14:11:05;;;;;;;9.13;3.38;;;;;;;;;;5015344;28;20065;-70
2021/08/18 14:13:33;;;;;;;14.10;4.20;;;;;;;;;;5024695;28;20041;-70
2021/08/18 14:16:00;;;;;;;9.10;3.38;;;;;;;;;;5031180;28;20083;-70
2021/08/18 14:18:29;;;;;;;9.73;3.60;;;;;;;;;;5025719;28;20068;-70
2021/08/18 14:20:58;;;;;;;11.65;3.17;;;;;;;;;;5029382;28;20029;-70
2021/08/18 14:23:28;;;;;;;9.82;3.10;;;;;;;;;;5002755;28;20041;-70
2021/08/18 14:25:56;;;;;;;5.90;3.13;;;;;;;;;;5012769;28;20044;-70
2021/08/18 14:28:23;;;;;;;9.18;3.55;;;;;;;;;;5028537;28;20040;-70
2021/08/18 14:30:50;;;;;;;7.10;3.10;;;;;;;;;;5031756;28;20129;-70
2021/08/18 14:33:17;;;;;;;10.07;3.33;;;;;;;;;;5025041;28;20517;-70
2021/08/18 14:35:44;;;;;;;8.82;3.45;;;;;;;;;;5032820;28;20483;-70
2021/08/18 14:38:11;;;;;;;12.45;4.30;;;;;;;;;;5031968;28;20530;-70
2021/08/18 14:40:38;;;;;;;13.38;3.75;;;;;;;;;;5032638;28;20498;-70
2021/08/18 14:43:05;;;;;;;10.10;3.97;;;;;;;;;;5013650;28;20059;-70
2021/08/18 14:45:33;;;;;;;8.50;2.95;;;;;;;;;;5029024;28;20112;-70